Latest Weather Observations for Redesdale

IDV60801

Issued at 4:05 pm EST Tuesday 29 July 2014 (issued every 30 minutes, with the page automatically refreshed every 10 minutes)

About weather observations | Map of weather stations | Latest weather observations for VIC | Other Formats
Station Details ID: 088051 Name: REDESDALE Lat: -37.02 Lon: 144.52 Height: 290.0 m
Data from the previous 72 hours. | See also: Recent months at Redesdale
Date/Time
EST
Temp
°C
App
Temp
°C
Dew
Point
Rel
Hum
%
Delta-T
°C
Wind Press
QNH
hPa
Press
MSL
hPa
Rain
since 9 am
mm
Dir
 
Spd
km/h
Gust
km/h
Spd
kts
Gust
kts
29/04:00pm 13.8 8.7 9.3 74 2.3 NNW 26 43 14 23 - - 0.0
29/03:30pm 13.7 8.7 9.4 75 2.2 NNW 26 41 14 22 - - 0.0
29/03:01pm 13.6 8.1 9.1 74 2.3 NNW 28 46 15 25 - - 0.0
29/03:00pm 13.6 8.1 9.3 75 2.2 NNW 28 43 15 23 - - 0.0
29/02:30pm 13.0 8.8 9.6 80 1.8 NNW 22 30 12 16 - - 0.0
29/02:00pm 12.3 7.7 9.7 84 1.3 NNW 24 33 13 18 - - 0.0
29/01:30pm 12.4 7.4 9.4 82 1.5 NNW 26 39 14 21 - - 0.0
29/01:00pm 12.3 7.6 9.3 82 1.5 NNW 24 43 13 23 - - 0.0
29/12:30pm 12.3 8.1 8.4 77 2.0 N 20 35 11 19 - - 0.0
29/12:00pm 12.1 7.9 8.2 77 2.0 N 20 33 11 18 - - 0.0
29/11:30am 11.5 6.4 7.6 77 1.9 NNW 24 39 13 21 - - 0.0
29/11:00am 11.6 7.3 7.9 78 1.8 NNW 20 37 11 20 - - 0.0
29/10:30am 10.9 7.1 7.6 80 1.6 NNW 17 26 9 14 - - 0.0
29/10:00am 8.8 5.7 7.3 90 0.7 N 13 17 7 9 - - 0.0
29/09:30am 8.1 5.9 8.0 99 0.0 NNE 9 15 5 8 - - 0.0
29/09:00am 6.4 3.8 6.3 99 0.0 NNE 9 13 5 7 - - 0.0
29/08:30am 5.7 2.6 5.6 99 0.0 NNE 11 17 6 9 - - 0.0
29/08:00am 4.7 2.4 4.6 99 0.0 N 6 7 3 4 - - 0.0
29/07:30am 4.3 0.9 4.2 99 0.0 N 11 15 6 8 - - 0.0
29/07:00am 4.7 1.4 4.6 99 0.0 N 11 13 6 7 - - 0.0
29/06:30am 4.6 2.2 4.5 99 0.0 N 6 7 3 4 - - 0.0
29/06:00am 4.6 2.2 4.5 99 0.0 N 6 7 3 4 - - 0.0
29/05:30am 4.9 2.6 4.8 99 0.0 N 6 9 3 5 - - 0.0
29/05:00am 4.9 2.4 4.8 99 0.0 N 7 9 4 5 - - 0.0
29/04:30am 5.2 2.8 5.1 99 0.0 N 7 11 4 6 - - 0.0
29/04:00am 4.8 1.9 4.7 99 0.0 N 9 13 5 7 - - 0.0
29/03:30am 5.1 1.9 5.0 99 0.0 N 11 15 6 8 - - 0.0
29/03:00am 5.2 2.0 5.1 99 0.0 N 11 15 6 8 - - 0.0
29/02:30am 5.0 2.5 4.9 99 0.0 N 7 11 4 6 - - 0.0
29/02:00am 4.8 2.3 4.5 98 0.1 N 7 9 4 5 - - 0.0
29/01:30am 5.2 2.7 4.9 98 0.1 N 7 9 4 5 - - 0.0
29/01:00am 5.3 3.0 4.9 97 0.2 N 6 7 3 4 - - 0.0
29/12:30am 5.2 2.9 4.9 98 0.1 N 6 11 3 6 - - 0.0
29/12:00am 5.4 3.5 5.1 98 0.1 N 4 6 2 3 - - 0.0
 
Date/Time
EST
Temp
°C
App
Temp
°C
Dew
Point
Rel
Hum
%
Delta-T
°C
Wind Press
QNH
hPa
Press
MSL
hPa
Rain
since 9 am
mm
Dir
 
Spd
km/h
Gust
km/h
Spd
kts
Gust
kts
28/11:30pm 5.7 3.5 5.3 97 0.2 N 6 9 3 5 - - 0.0
28/11:00pm 6.0 4.2 5.6 97 0.2 N 4 6 2 3 - - 0.0
28/10:30pm 6.4 4.7 5.8 96 0.3 N 4 6 2 3 - - 0.0
28/10:00pm 6.7 4.4 5.8 94 0.4 N 7 9 4 5 - - 0.0
28/09:30pm 7.1 5.0 6.0 93 0.5 N 6 7 3 4 - - 0.0
28/09:00pm 7.4 5.3 5.9 90 0.7 N 6 7 3 4 - - 0.0
28/08:30pm 8.0 5.8 6.1 88 0.9 N 7 9 4 5 - - 0.0
28/08:00pm 8.5 6.0 6.6 88 0.9 N 9 13 5 7 - - 0.0
28/07:30pm 8.3 7.0 6.1 86 1.0 NE 2 6 1 3 - - 0.0
28/07:00pm 8.9 7.3 6.3 84 1.2 NNE 4 7 2 4 - - 0.0
28/06:30pm 10.0 7.1 6.5 79 1.7 N 11 17 6 9 - - 0.0
28/06:00pm 10.8 8.0 6.9 77 1.9 N 11 17 6 9 - - 0.0
28/05:30pm 11.2 8.0 6.9 75 2.1 N 13 19 7 10 - - 0.0
28/05:00pm 12.6 9.1 7.1 69 2.7 NNW 15 20 8 11 - - 0.0
28/04:30pm 13.9 11.3 7.9 67 3.0 N 11 19 6 10 - - 0.0
28/04:00pm 14.1 10.6 7.4 64 3.3 N 15 20 8 11 - - 0.0
28/03:30pm 14.4 10.8 6.7 60 3.8 N 15 26 8 14 - - 0.0
28/03:00pm 14.3 11.3 7.8 65 3.3 N 13 22 7 12 - - 0.0
28/02:30pm 13.9 10.9 7.7 66 3.1 NNE 13 20 7 11 - - 0.0
28/02:00pm 13.1 10.0 7.1 67 3.0 NNE 13 20 7 11 - - 0.0
28/01:30pm 13.3 10.3 7.5 68 2.9 N 13 19 7 10 - - 0.0
28/01:00pm 12.6 9.8 7.1 69 2.7 N 11 20 6 11 - - 0.0
28/12:30pm 12.2 9.4 7.1 71 2.5 NNE 11 17 6 9 - - 0.0
28/12:00pm 11.4 8.6 6.9 74 2.2 NNE 11 17 6 9 - - 0.0
28/11:30am 10.1 6.8 6.3 77 1.8 N 13 20 7 11 - - 0.0
28/11:00am 9.8 6.8 6.2 78 1.7 N 11 17 6 9 - - 0.0
28/10:30am 9.0 6.6 7.0 87 1.0 NE 9 13 5 7 - - 0.0
28/10:00am 8.4 6.0 6.9 90 0.7 NE 9 15 5 8 - - 0.0
28/09:30am 7.2 5.4 7.1 99 0.0 NE 6 9 3 5 - - 0.0
28/09:00am 5.9 3.8 5.8 99 0.0 E 6 9 3 5 - - 0.4
28/08:30am 4.5 2.1 4.4 99 0.0 ENE 6 7 3 4 - - 0.4
28/08:00am 3.9 1.2 3.8 99 0.0 E 7 9 4 5 - - 0.2
28/07:30am 2.5 0.5 2.4 99 0.0 E 2 6 1 3 - - 0.2
28/07:00am 3.9 1.4 3.8 99 0.0 E 6 9 3 5 - - 0.2
28/06:30am 3.4 0.8 3.3 99 0.0 E 6 7 3 4 - - 0.2
28/06:00am 2.9 0.6 2.8 99 0.0 E 4 6 2 3 - - 0.2
28/05:30am 3.3 0.7 3.2 99 0.0 E 6 7 3 4 - - 0.2
28/05:00am 4.0 1.5 3.9 99 0.0 E 6 7 3 4 - - 0.2
28/04:30am 2.8 0.1 2.7 99 0.0 E 6 7 3 4 - - 0.2
28/04:00am 2.2 -0.8 2.1 99 0.0 ESE 7 9 4 5 - - 0.2
28/03:30am 2.5 -0.4 2.4 99 0.0 ESE 7 9 4 5 - - 0.2
28/03:00am 2.6 -0.3 2.5 99 0.0 SE 7 9 4 5 - - 0.2
28/02:30am 3.0 0.3 2.9 99 0.0 ESE 6 7 3 4 - - 0.0
28/02:00am 3.2 1.0 3.1 99 0.0 E 4 6 2 3 - - 0.0
28/01:30am 3.1 0.8 3.0 99 0.0 NNE 4 6 2 3 - - 0.0
28/01:00am 3.8 2.0 3.7 99 0.0 N 2 4 1 2 - - 0.0
28/12:30am 4.4 2.8 4.3 99 0.0 NNE 2 4 1 2 - - 0.0
28/12:00am 4.6 3.3 4.2 97 0.2 CALM 0 0 0 0 - - 0.0
 
Date/Time
EST
Temp
°C
App
Temp
°C
Dew
Point
Rel
Hum
%
Delta-T
°C
Wind Press
QNH
hPa
Press
MSL
hPa
Rain
since 9 am
mm
Dir
 
Spd
km/h
Gust
km/h
Spd
kts
Gust
kts
27/11:30pm 6.3 5.0 6.0 98 0.1 NNW 2 4 1 2 - - 0.0
27/11:00pm 6.8 5.2 6.5 98 0.1 NNW 4 4 2 2 - - 0.0
27/10:30pm 6.9 5.0 6.5 97 0.2 N 6 7 3 4 - - 0.0
27/10:00pm 7.5 5.6 6.9 96 0.3 N 6 7 3 4 - - 0.0
27/09:30pm 7.7 6.3 7.1 96 0.3 N 4 6 2 3 - - 0.0
27/09:00pm 7.2 6.0 6.3 94 0.4 N 2 4 1 2 - - 0.0
27/08:30pm 8.2 6.3 6.7 90 0.7 N 6 7 3 4 - - 0.0
27/08:00pm 8.6 6.7 6.7 88 0.9 N 6 6 3 3 - - 0.0
27/07:30pm 9.1 7.6 6.9 86 1.0 N 4 7 2 4 - - 0.0
27/07:00pm 9.8 7.5 7.4 85 1.2 N 9 13 5 7 - - 0.0
27/06:30pm 10.1 7.9 7.7 85 1.2 N 9 11 5 6 - - 0.0
27/06:00pm 10.4 8.9 8.3 87 1.0 NNE 6 11 3 6 - - 0.0
27/05:30pm 11.2 9.7 8.6 84 1.3 N 6 7 3 4 - - 0.0
27/05:00pm 11.6 10.1 8.6 82 1.5 N 6 7 3 4 - - 0.0
27/04:30pm 12.0 10.4 8.7 80 1.7 N 7 11 4 6 - - 0.0
27/04:00pm 11.9 9.8 8.2 78 1.8 N 9 15 5 8 - - 0.0
27/03:30pm 12.1 9.6 8.0 76 2.0 N 11 19 6 10 - - 0.0
27/03:00pm 12.7 8.6 8.0 73 2.4 NNW 19 32 10 17 - - 0.0
27/02:30pm 12.9 9.1 7.6 70 2.6 NNW 17 22 9 12 - - 0.0
27/02:00pm 13.9 9.6 7.9 67 3.0 N 20 32 11 17 - - 0.0
27/01:30pm 13.6 10.6 9.1 74 2.3 N 15 22 8 12 - - 0.0
27/01:00pm 13.2 9.7 8.9 75 2.2 N 17 22 9 12 - - 0.0
27/12:30pm 12.8 9.3 8.9 77 2.0 NNW 17 20 9 11 - - 0.0
27/12:00pm 11.6 10.0 8.8 83 1.4 NNE 7 11 4 6 - - 0.0
27/11:30am 10.8 9.1 8.4 85 1.2 NNE 7 11 4 6 - - 0.0
27/11:00am 10.6 9.0 8.2 85 1.2 NNE 6 9 3 5 - - 0.0
27/10:30am 9.6 8.3 7.5 87 1.0 NNE 4 7 2 4 - - 0.0
27/10:00am 8.8 7.8 7.3 90 0.7 SSE 2 4 1 2 - - 0.0
27/09:30am 8.1 7.3 8.0 99 0.0 S 2 4 1 2 - - 0.0
27/09:00am 5.5 4.1 5.4 99 0.0 S 2 4 1 2 - - 0.2
27/08:30am 2.6 -0.1 2.5 99 0.0 SSW 6 7 3 4 - - 0.2
27/08:00am 0.7 -2.5 0.6 99 0.0 SSW 7 7 4 4 - - 0.2
27/07:30am 0.4 -2.9 0.3 99 0.0 S 7 9 4 5 - - 0.2
27/07:00am 0.6 -2.6 0.5 99 0.0 SSW 7 7 4 4 - - 0.2
27/06:30am 0.7 -2.0 0.6 99 0.0 SSW 4 7 2 4 - - 0.2
27/06:00am 0.7 -2.5 0.6 99 0.0 SSW 7 9 4 5 - - 0.2
27/05:30am 0.9 -2.3 0.8 99 0.0 SSW 7 11 4 6 - - 0.2
27/05:00am 1.1 -2.4 1.0 99 0.0 SSW 9 11 5 6 - - 0.2
27/04:30am 1.1 -2.4 1.0 99 0.0 S 9 13 5 7 - - 0.2
27/04:00am 1.4 -1.5 1.3 99 0.0 S 6 7 3 4 - - 0.2
27/03:30am 2.0 -1.4 1.9 99 0.0 SSW 9 11 5 6 - - 0.2
27/03:00am 1.6 -1.9 1.5 99 0.0 SSW 9 9 5 5 - - 0.2
27/02:30am 1.6 -1.5 1.5 99 0.0 SW 7 9 4 5 - - 0.2
27/02:00am 2.1 -0.9 2.0 99 0.0 S 7 9 4 5 - - 0.0
27/01:30am 2.2 -0.8 2.1 99 0.0 S 7 9 4 5 - - 0.0
27/01:00am 2.4 -0.4 2.3 99 0.0 S 6 7 3 4 - - 0.0
27/12:30am 2.6 -0.1 2.5 99 0.0 SSE 6 7 3 4 - - 0.0
27/12:00am 3.6 1.4 3.5 99 0.0 SW 4 6 2 3 - - 0.0
 
Date/Time
EST
Temp
°C
App
Temp
°C
Dew
Point
Rel
Hum
%
Delta-T
°C
Wind Press
QNH
hPa
Press
MSL
hPa
Rain
since 9 am
mm
Dir
 
Spd
km/h
Gust
km/h
Spd
kts
Gust
kts
26/11:30pm 4.3 1.9 4.2 99 0.0 S 6 9 3 5 - - 0.0
26/11:00pm 4.4 2.0 4.3 99 0.0 SSW 6 7 3 4 - - 0.0
26/10:30pm 4.1 2.4 3.8 98 0.1 SW 2 4 1 2 - - 0.0
26/10:00pm 4.4 2.7 4.0 97 0.2 WNW 2 4 1 2 - - 0.0
26/09:30pm 6.3 5.0 5.9 97 0.2 W 2 4 1 2 - - 0.0
26/09:00pm 6.7 5.0 6.0 95 0.3 WSW 4 6 2 3 - - 0.0
26/08:30pm 7.5 6.0 6.9 96 0.3 W 4 6 2 3 - - 0.0
26/08:00pm 7.4 6.2 6.5 94 0.4 WSW 2 4 1 2 - - 0.0
26/07:30pm 8.1 7.1 7.5 96 0.3 SW 2 4 1 2 - - 0.0
26/07:00pm 7.1 6.2 6.0 93 0.5 CALM 0 0 0 0 - - 0.0
26/06:30pm 8.0 6.8 6.6 91 0.7 SW 2 4 1 2 - - 0.0
26/06:00pm 8.0 6.3 6.1 88 0.9 SW 4 6 2 3 - - 0.0
26/05:30pm 10.8 9.0 7.3 79 1.7 W 6 11 3 6 - - 0.0
26/05:00pm 11.2 9.3 7.7 79 1.7 W 7 11 4 6 - - 0.0
26/04:30pm 11.5 9.2 7.4 76 2.0 WSW 9 15 5 8 - - 0.0

Other Formats:

Comma delimited format used in spreadsheet applications
http://www.bom.gov.au/fwo/IDV60801/IDV60801.94859.axf

JavaScript Object Notation format (JSON) in row-major order
http://www.bom.gov.au/fwo/IDV60801/IDV60801.94859.json